createdAt,value
2022-10-18T00:02:08.357Z,7.18
2022-10-18T00:12:12.058Z,7.09
2022-10-18T00:22:15.819Z,7.07
2022-10-18T00:32:19.684Z,7.00
2022-10-18T00:42:34.809Z,6.96
2022-10-18T00:52:42.604Z,6.88
2022-10-18T01:02:47.625Z,6.85
2022-10-18T01:13:00.156Z,6.87
2022-10-18T01:23:17.308Z,6.76
2022-10-18T01:33:29.996Z,6.63
2022-10-18T01:43:36.163Z,6.52
2022-10-18T01:53:39.768Z,6.39
2022-10-18T02:03:46.780Z,6.42
2022-10-18T02:13:58.458Z,6.39
2022-10-18T02:24:03.138Z,6.30
2022-10-18T02:34:31.271Z,6.19
2022-10-18T02:44:35.558Z,6.14
2022-10-18T02:54:39.237Z,6.13
2022-10-18T03:04:42.984Z,6.13
2022-10-18T03:14:46.577Z,6.08
2022-10-18T03:24:50.330Z,6.11
2022-10-18T03:34:53.991Z,6.09
2022-10-18T03:44:57.758Z,6.07
2022-10-18T03:55:01.524Z,6.00
2022-10-18T04:05:05.697Z,5.95
2022-10-18T04:15:10.043Z,5.94
2022-10-18T04:25:13.638Z,5.93
2022-10-18T04:35:17.411Z,5.94
2022-10-18T04:45:21.186Z,5.97
2022-10-18T04:55:24.854Z,5.92
2022-10-18T05:05:43.477Z,5.93
2022-10-18T05:15:52.749Z,5.92
2022-10-18T05:26:06.061Z,5.88
2022-10-18T05:36:11.230Z,5.93
2022-10-18T05:46:15.812Z,6.03
2022-10-18T05:56:20.085Z,6.36
2022-10-18T06:06:23.862Z,6.62
2022-10-18T06:16:32.225Z,6.87
2022-10-18T06:26:36.512Z,7.41
2022-10-18T06:36:40.374Z,8.01
2022-10-18T06:46:45.893Z,8.56
2022-10-18T06:56:49.613Z,9.12
2022-10-18T07:06:55.166Z,9.68
2022-10-18T07:17:02.209Z,10.26
2022-10-18T07:27:05.872Z,10.80
2022-10-18T07:37:11.528Z,11.29
2022-10-18T07:47:15.858Z,11.73
2022-10-18T07:57:20.138Z,12.14
2022-10-18T08:07:23.712Z,12.52
2022-10-18T08:17:27.391Z,12.86
2022-10-18T08:27:31.514Z,13.32
2022-10-18T08:37:35.717Z,13.96
2022-10-18T08:47:45.349Z,14.62
2022-10-18T08:57:51.207Z,15.26
2022-10-18T09:08:19.054Z,15.85
2022-10-18T09:18:58.651Z,16.40
2022-10-18T09:29:34.152Z,16.85
2022-10-18T09:39:39.949Z,17.28
2022-10-18T09:49:48.393Z,17.62
2022-10-18T09:59:52.391Z,17.94
2022-10-18T10:09:59.387Z,18.27
2022-10-18T10:20:14.085Z,18.53
2022-10-18T10:30:35.052Z,18.83
2022-10-18T10:40:50.672Z,19.09
2022-10-18T10:51:01.819Z,19.29
2022-10-18T11:01:25.053Z,19.55
2022-10-18T11:11:35.542Z,19.77
2022-10-18T11:21:41.448Z,20.01
2022-10-18T11:32:03.928Z,20.29
2022-10-18T11:42:26.025Z,20.51
2022-10-18T11:53:09.183Z,20.64
2022-10-18T12:04:01.374Z,20.70
2022-10-18T12:14:14.768Z,20.72
2022-10-18T12:24:23.708Z,20.79
2022-10-18T12:34:33.857Z,20.89
2022-10-18T12:44:37.508Z,20.96
2022-10-18T12:54:41.249Z,20.93
2022-10-18T13:04:45.169Z,20.91
2022-10-18T13:15:12.721Z,20.85
2022-10-18T13:25:30.778Z,20.78
2022-10-18T13:35:50.938Z,20.62
2022-10-18T13:45:56.595Z,20.44
2022-10-18T13:56:11.239Z,20.31
2022-10-18T14:06:23.374Z,20.20
2022-10-18T14:16:41.175Z,19.96
2022-10-18T14:26:44.849Z,19.62
2022-10-18T14:36:50.447Z,19.19
2022-10-18T14:47:10.820Z,18.86
2022-10-18T14:57:30.454Z,18.49
2022-10-18T15:07:35.843Z,18.01
2022-10-18T15:17:41.536Z,17.38
2022-10-18T15:27:58.771Z,16.65
2022-10-18T15:38:13.935Z,15.93
2022-10-18T15:48:36.450Z,15.21
2022-10-18T15:58:45.934Z,14.50
2022-10-18T16:08:52.363Z,13.97
2022-10-18T16:18:57.154Z,13.52
2022-10-18T16:29:01.795Z,13.08
2022-10-18T16:39:12.416Z,12.61
2022-10-18T16:49:23.358Z,12.18
2022-10-18T16:59:30.037Z,11.85
2022-10-18T17:09:36.254Z,11.52
2022-10-18T17:19:39.852Z,11.26
2022-10-18T17:29:45.388Z,11.08
2022-10-18T17:39:50.030Z,10.83
2022-10-18T17:49:55.133Z,10.54
2022-10-18T18:00:00.730Z,10.25
2022-10-18T18:10:06.886Z,10.05
2022-10-18T18:20:13.167Z,9.83
2022-10-18T18:30:19.250Z,9.70
2022-10-18T18:40:25.110Z,9.63
2022-10-18T18:50:31.042Z,9.67
2022-10-18T19:00:44.391Z,9.62
2022-10-18T19:10:50.648Z,9.69
2022-10-18T19:20:55.794Z,9.78
2022-10-18T19:31:00.589Z,9.90
2022-10-18T19:41:06.573Z,10.15
2022-10-18T19:51:17.368Z,10.45
2022-10-18T20:01:28.414Z,10.72
2022-10-18T20:11:33.236Z,10.95
2022-10-18T20:21:37.700Z,11.15
2022-10-18T20:31:41.551Z,11.30
2022-10-18T20:41:45.643Z,11.64
2022-10-18T20:51:49.406Z,12.36
2022-10-18T21:01:53.143Z,13.00
2022-10-18T21:11:57.074Z,13.48
2022-10-18T21:22:04.384Z,13.88
2022-10-18T21:32:08.666Z,14.16
2022-10-18T21:42:14.111Z,14.32
2022-10-18T21:52:18.478Z,14.38
2022-10-18T22:02:22.737Z,14.44
2022-10-18T22:12:26.912Z,14.45
2022-10-18T22:22:31.100Z,14.17
2022-10-18T22:32:34.862Z,13.88
2022-10-18T22:42:38.431Z,13.66
2022-10-18T22:52:41.992Z,13.49
2022-10-18T23:02:45.758Z,13.47
2022-10-18T23:12:49.213Z,13.40
2022-10-18T23:22:52.801Z,13.28
2022-10-18T23:32:56.670Z,13.17
2022-10-18T23:43:00.429Z,13.11
2022-10-18T23:53:04.099Z,13.10
